sensor_id;sensor_type;location;lat;lon;timestamp;P1;durP1;ratioP1;P2;durP2;ratioP2
12218;SDS011;6172;42.646;23.344;2022-09-09T00:01:00;11.18;;;9.70;;
12218;SDS011;6172;42.646;23.344;2022-09-09T00:03:38;10.53;;;9.43;;
12218;SDS011;6172;42.646;23.344;2022-09-09T00:06:13;12.73;;;9.40;;
12218;SDS011;6172;42.646;23.344;2022-09-09T00:08:49;11.13;;;8.73;;
12218;SDS011;6172;42.646;23.344;2022-09-09T00:11:28;10.02;;;9.02;;
12218;SDS011;6172;42.646;23.344;2022-09-09T00:14:03;11.60;;;9.25;;
12218;SDS011;6172;42.646;23.344;2022-09-09T00:16:38;12.57;;;10.00;;
12218;SDS011;6172;42.646;23.344;2022-09-09T00:19:13;12.45;;;9.52;;
12218;SDS011;6172;42.646;23.344;2022-09-09T00:21:49;10.98;;;9.82;;
12218;SDS011;6172;42.646;23.344;2022-09-09T00:24:24;14.98;;;10.27;;
12218;SDS011;6172;42.646;23.344;2022-09-09T00:26:57;11.13;;;9.93;;
12218;SDS011;6172;42.646;23.344;2022-09-09T00:29:33;11.50;;;9.63;;
12218;SDS011;6172;42.646;23.344;2022-09-09T00:32:12;14.40;;;9.93;;
12218;SDS011;6172;42.646;23.344;2022-09-09T00:34:45;11.57;;;9.30;;
12218;SDS011;6172;42.646;23.344;2022-09-09T00:37:14;10.38;;;9.23;;
12218;SDS011;6172;42.646;23.344;2022-09-09T00:39:42;10.90;;;9.77;;
12218;SDS011;6172;42.646;23.344;2022-09-09T00:42:15;10.68;;;9.68;;
12218;SDS011;6172;42.646;23.344;2022-09-09T00:44:56;11.70;;;10.00;;
12218;SDS011;6172;42.646;23.344;2022-09-09T00:50:16;10.40;;;9.23;;
12218;SDS011;6172;42.646;23.344;2022-09-09T00:52:56;10.63;;;8.87;;
12218;SDS011;6172;42.646;23.344;2022-09-09T00:55:33;10.00;;;9.00;;
12218;SDS011;6172;42.646;23.344;2022-09-09T00:58:09;11.43;;;9.23;;
12218;SDS011;6172;42.646;23.344;2022-09-09T01:00:39;10.50;;;9.43;;
12218;SDS011;6172;42.646;23.344;2022-09-09T01:03:19;11.00;;;9.37;;
12218;SDS011;6172;42.646;23.344;2022-09-09T01:05:51;11.90;;;9.57;;
12218;SDS011;6172;42.646;23.344;2022-09-09T01:08:35;10.77;;;9.57;;
12218;SDS011;6172;42.646;23.344;2022-09-09T01:11:15;11.30;;;9.87;;
12218;SDS011;6172;42.646;23.344;2022-09-09T01:13:55;11.40;;;10.20;;
12218;SDS011;6172;42.646;23.344;2022-09-09T01:16:26;12.10;;;9.20;;
12218;SDS011;6172;42.646;23.344;2022-09-09T01:18:56;10.77;;;9.33;;
12218;SDS011;6172;42.646;23.344;2022-09-09T01:21:26;12.30;;;10.60;;
12218;SDS011;6172;42.646;23.344;2022-09-09T01:24:15;10.03;;;8.90;;
12218;SDS011;6172;42.646;23.344;2022-09-09T01:26:51;9.10;;;8.20;;
12218;SDS011;6172;42.646;23.344;2022-09-09T01:29:21;10.00;;;8.37;;
12218;SDS011;6172;42.646;23.344;2022-09-09T01:31:52;10.23;;;9.20;;
12218;SDS011;6172;42.646;23.344;2022-09-09T01:34:21;10.57;;;9.37;;
12218;SDS011;6172;42.646;23.344;2022-09-09T01:36:50;12.63;;;9.40;;
12218;SDS011;6172;42.646;23.344;2022-09-09T01:39:22;10.70;;;9.60;;
12218;SDS011;6172;42.646;23.344;2022-09-09T01:41:51;13.20;;;10.03;;
12218;SDS011;6172;42.646;23.344;2022-09-09T01:44:18;14.43;;;10.37;;
12218;SDS011;6172;42.646;23.344;2022-09-09T01:46:46;10.20;;;9.30;;
12218;SDS011;6172;42.646;23.344;2022-09-09T01:49:14;12.77;;;10.57;;
12218;SDS011;6172;42.646;23.344;2022-09-09T01:51:43;11.13;;;10.00;;
12218;SDS011;6172;42.646;23.344;2022-09-09T01:54:11;11.27;;;9.87;;
12218;SDS011;6172;42.646;23.344;2022-09-09T01:56:40;13.80;;;9.67;;
12218;SDS011;6172;42.646;23.344;2022-09-09T01:59:27;11.10;;;9.57;;
12218;SDS011;6172;42.646;23.344;2022-09-09T02:02:11;12.57;;;9.80;;
12218;SDS011;6172;42.646;23.344;2022-09-09T02:04:44;12.70;;;10.03;;
12218;SDS011;6172;42.646;23.344;2022-09-09T02:07:18;11.60;;;9.97;;
12218;SDS011;6172;42.646;23.344;2022-09-09T02:09:56;12.93;;;9.97;;
12218;SDS011;6172;42.646;23.344;2022-09-09T02:12:44;15.03;;;10.07;;
12218;SDS011;6172;42.646;23.344;2022-09-09T02:15:16;12.57;;;9.53;;
12218;SDS011;6172;42.646;23.344;2022-09-09T02:17:47;10.90;;;9.57;;
12218;SDS011;6172;42.646;23.344;2022-09-09T02:20:18;11.97;;;10.23;;
12218;SDS011;6172;42.646;23.344;2022-09-09T02:22:47;13.30;;;10.90;;
12218;SDS011;6172;42.646;23.344;2022-09-09T02:25:18;12.30;;;10.17;;
12218;SDS011;6172;42.646;23.344;2022-09-09T02:27:47;11.73;;;10.47;;
12218;SDS011;6172;42.646;23.344;2022-09-09T02:30:18;12.63;;;10.30;;
12218;SDS011;6172;42.646;23.344;2022-09-09T02:32:47;11.97;;;10.83;;
12218;SDS011;6172;42.646;23.344;2022-09-09T02:35:18;12.20;;;10.23;;
12218;SDS011;6172;42.646;23.344;2022-09-09T02:37:47;17.93;;;11.33;;
12218;SDS011;6172;42.646;23.344;2022-09-09T02:40:17;14.50;;;11.47;;
12218;SDS011;6172;42.646;23.344;2022-09-09T02:42:45;10.77;;;9.53;;
12218;SDS011;6172;42.646;23.344;2022-09-09T02:45:16;12.53;;;10.60;;
12218;SDS011;6172;42.646;23.344;2022-09-09T02:47:48;12.80;;;10.30;;
12218;SDS011;6172;42.646;23.344;2022-09-09T02:50:21;14.73;;;11.03;;
12218;SDS011;6172;42.646;23.344;2022-09-09T02:52:54;14.17;;;10.47;;
12218;SDS011;6172;42.646;23.344;2022-09-09T02:55:35;11.63;;;10.20;;
12218;SDS011;6172;42.646;23.344;2022-09-09T02:58:06;12.27;;;10.13;;
12218;SDS011;6172;42.646;23.344;2022-09-09T03:00:38;12.57;;;10.63;;
12218;SDS011;6172;42.646;23.344;2022-09-09T03:03:06;11.57;;;10.13;;
12218;SDS011;6172;42.646;23.344;2022-09-09T03:05:34;11.57;;;10.37;;
12218;SDS011;6172;42.646;23.344;2022-09-09T03:08:02;12.87;;;10.17;;
12218;SDS011;6172;42.646;23.344;2022-09-09T03:10:29;11.60;;;10.07;;
12218;SDS011;6172;42.646;23.344;2022-09-09T03:12:56;12.00;;;10.30;;
12218;SDS011;6172;42.646;23.344;2022-09-09T03:15:24;13.00;;;10.00;;
12218;SDS011;6172;42.646;23.344;2022-09-09T03:17:57;11.37;;;10.33;;
12218;SDS011;6172;42.646;23.344;2022-09-09T03:20:24;13.90;;;10.47;;
12218;SDS011;6172;42.646;23.344;2022-09-09T03:22:52;11.60;;;10.37;;
12218;SDS011;6172;42.646;23.344;2022-09-09T03:25:19;10.83;;;9.77;;
12218;SDS011;6172;42.646;23.344;2022-09-09T03:27:48;12.00;;;10.57;;
12218;SDS011;6172;42.646;23.344;2022-09-09T03:30:15;11.30;;;10.20;;
12218;SDS011;6172;42.646;23.344;2022-09-09T03:32:42;12.00;;;10.90;;
12218;SDS011;6172;42.646;23.344;2022-09-09T03:35:11;12.63;;;10.67;;
12218;SDS011;6172;42.646;23.344;2022-09-09T03:37:39;15.87;;;11.53;;
12218;SDS011;6172;42.646;23.344;2022-09-09T03:40:07;13.07;;;11.07;;
12218;SDS011;6172;42.646;23.344;2022-09-09T03:42:35;12.90;;;11.50;;
12218;SDS011;6172;42.646;23.344;2022-09-09T03:45:02;13.37;;;10.80;;
12218;SDS011;6172;42.646;23.344;2022-09-09T03:47:30;12.47;;;11.23;;
12218;SDS011;6172;42.646;23.344;2022-09-09T03:49:57;12.90;;;11.30;;
12218;SDS011;6172;42.646;23.344;2022-09-09T03:52:25;18.23;;;10.87;;
12218;SDS011;6172;42.646;23.344;2022-09-09T03:54:52;19.63;;;12.00;;
12218;SDS011;6172;42.646;23.344;2022-09-09T03:57:20;15.00;;;11.47;;
12218;SDS011;6172;42.646;23.344;2022-09-09T03:59:47;14.30;;;11.60;;
12218;SDS011;6172;42.646;23.344;2022-09-09T04:02:14;13.73;;;12.10;;
12218;SDS011;6172;42.646;23.344;2022-09-09T04:04:41;17.93;;;12.17;;
12218;SDS011;6172;42.646;23.344;2022-09-09T04:07:08;13.43;;;11.63;;
12218;SDS011;6172;42.646;23.344;2022-09-09T04:09:38;13.80;;;11.80;;
12218;SDS011;6172;42.646;23.344;2022-09-09T04:12:05;14.37;;;11.70;;
12218;SDS011;6172;42.646;23.344;2022-09-09T04:14:32;14.27;;;12.00;;
12218;SDS011;6172;42.646;23.344;2022-09-09T04:16:59;13.20;;;11.23;;
12218;SDS011;6172;42.646;23.344;2022-09-09T04:19:29;15.80;;;11.70;;
12218;SDS011;6172;42.646;23.344;2022-09-09T04:21:59;17.30;;;12.23;;
12218;SDS011;6172;42.646;23.344;2022-09-09T04:24:28;20.47;;;12.70;;
12218;SDS011;6172;42.646;23.344;2022-09-09T04:26:56;15.13;;;11.80;;
12218;SDS011;6172;42.646;23.344;2022-09-09T04:29:23;18.37;;;12.57;;
12218;SDS011;6172;42.646;23.344;2022-09-09T04:31:51;15.83;;;12.33;;
12218;SDS011;6172;42.646;23.344;2022-09-09T04:34:18;19.03;;;12.17;;
12218;SDS011;6172;42.646;23.344;2022-09-09T04:36:45;16.03;;;11.10;;
12218;SDS011;6172;42.646;23.344;2022-09-09T04:39:13;15.13;;;11.60;;
12218;SDS011;6172;42.646;23.344;2022-09-09T04:41:39;14.70;;;11.73;;
12218;SDS011;6172;42.646;23.344;2022-09-09T04:44:08;14.67;;;12.63;;
12218;SDS011;6172;42.646;23.344;2022-09-09T04:46:35;16.63;;;12.70;;
12218;SDS011;6172;42.646;23.344;2022-09-09T04:49:03;21.27;;;13.67;;
12218;SDS011;6172;42.646;23.344;2022-09-09T04:51:30;16.10;;;13.67;;
12218;SDS011;6172;42.646;23.344;2022-09-09T04:53:57;16.10;;;13.03;;
12218;SDS011;6172;42.646;23.344;2022-09-09T04:56:24;25.13;;;15.47;;
12218;SDS011;6172;42.646;23.344;2022-09-09T04:58:53;20.45;;;12.65;;
12218;SDS011;6172;42.646;23.344;2022-09-09T05:01:22;21.45;;;12.90;;
12218;SDS011;6172;42.646;23.344;2022-09-09T05:03:49;20.02;;;11.15;;
12218;SDS011;6172;42.646;23.344;2022-09-09T05:06:17;12.68;;;10.75;;
12218;SDS011;6172;42.646;23.344;2022-09-09T05:08:46;16.20;;;10.80;;
12218;SDS011;6172;42.646;23.344;2022-09-09T05:11:18;17.38;;;11.00;;
12218;SDS011;6172;42.646;23.344;2022-09-09T05:13:46;13.80;;;11.13;;
12218;SDS011;6172;42.646;23.344;2022-09-09T05:16:17;11.68;;;8.77;;
12218;SDS011;6172;42.646;23.344;2022-09-09T05:18:46;9.57;;;7.45;;
12218;SDS011;6172;42.646;23.344;2022-09-09T05:21:16;13.90;;;7.85;;
12218;SDS011;6172;42.646;23.344;2022-09-09T05:23:44;8.45;;;6.78;;
12218;SDS011;6172;42.646;23.344;2022-09-09T05:26:13;9.90;;;6.13;;
12218;SDS011;6172;42.646;23.344;2022-09-09T05:28:41;12.35;;;6.65;;
12218;SDS011;6172;42.646;23.344;2022-09-09T05:31:13;8.32;;;6.55;;
12218;SDS011;6172;42.646;23.344;2022-09-09T05:33:43;7.28;;;5.70;;
12218;SDS011;6172;42.646;23.344;2022-09-09T05:36:17;14.25;;;6.80;;
12218;SDS011;6172;42.646;23.344;2022-09-09T05:38:45;11.15;;;6.32;;
12218;SDS011;6172;42.646;23.344;2022-09-09T05:41:12;10.07;;;7.07;;
12218;SDS011;6172;42.646;23.344;2022-09-09T05:43:41;10.60;;;6.10;;
12218;SDS011;6172;42.646;23.344;2022-09-09T05:46:10;10.23;;;6.40;;
12218;SDS011;6172;42.646;23.344;2022-09-09T05:48:39;9.10;;;5.70;;
12218;SDS011;6172;42.646;23.344;2022-09-09T05:51:08;8.98;;;5.43;;
12218;SDS011;6172;42.646;23.344;2022-09-09T05:53:38;8.85;;;4.68;;
12218;SDS011;6172;42.646;23.344;2022-09-09T05:56:06;11.70;;;5.53;;
12218;SDS011;6172;42.646;23.344;2022-09-09T05:58:37;10.02;;;4.80;;
12218;SDS011;6172;42.646;23.344;2022-09-09T06:01:05;9.90;;;5.82;;
12218;SDS011;6172;42.646;23.344;2022-09-09T06:03:33;5.88;;;5.07;;
12218;SDS011;6172;42.646;23.344;2022-09-09T06:06:02;4.90;;;4.45;;
12218;SDS011;6172;42.646;23.344;2022-09-09T06:08:31;4.75;;;4.32;;
12218;SDS011;6172;42.646;23.344;2022-09-09T06:11:33;7.07;;;4.40;;
12218;SDS011;6172;42.646;23.344;2022-09-09T06:14:04;5.18;;;4.68;;
12218;SDS011;6172;42.646;23.344;2022-09-09T06:16:34;7.40;;;5.45;;
12218;SDS011;6172;42.646;23.344;2022-09-09T06:19:04;7.35;;;4.70;;
12218;SDS011;6172;42.646;23.344;2022-09-09T06:21:32;9.00;;;6.47;;
12218;SDS011;6172;42.646;23.344;2022-09-09T06:24:02;4.78;;;4.32;;
12218;SDS011;6172;42.646;23.344;2022-09-09T06:26:44;4.78;;;4.30;;
12218;SDS011;6172;42.646;23.344;2022-09-09T06:29:11;7.63;;;4.60;;
12218;SDS011;6172;42.646;23.344;2022-09-09T06:31:38;5.90;;;4.55;;
12218;SDS011;6172;42.646;23.344;2022-09-09T06:34:06;6.85;;;4.72;;
12218;SDS011;6172;42.646;23.344;2022-09-09T06:36:34;9.23;;;4.93;;
12218;SDS011;6172;42.646;23.344;2022-09-09T06:39:03;8.77;;;5.53;;
12218;SDS011;6172;42.646;23.344;2022-09-09T06:41:38;9.57;;;5.95;;
12218;SDS011;6172;42.646;23.344;2022-09-09T06:44:06;6.05;;;4.75;;
12218;SDS011;6172;42.646;23.344;2022-09-09T06:46:36;9.00;;;5.32;;
12218;SDS011;6172;42.646;23.344;2022-09-09T06:49:03;9.93;;;5.35;;
12218;SDS011;6172;42.646;23.344;2022-09-09T06:51:30;6.97;;;4.82;;
12218;SDS011;6172;42.646;23.344;2022-09-09T06:53:59;7.57;;;5.28;;
12218;SDS011;6172;42.646;23.344;2022-09-09T06:56:29;8.60;;;4.60;;
12218;SDS011;6172;42.646;23.344;2022-09-09T06:59:00;5.38;;;4.90;;
12218;SDS011;6172;42.646;23.344;2022-09-09T07:01:29;6.20;;;4.88;;
12218;SDS011;6172;42.646;23.344;2022-09-09T07:03:58;5.20;;;4.65;;
12218;SDS011;6172;42.646;23.344;2022-09-09T07:06:27;5.72;;;4.72;;
12218;SDS011;6172;42.646;23.344;2022-09-09T07:08:56;6.75;;;4.50;;
12218;SDS011;6172;42.646;23.344;2022-09-09T07:11:25;6.07;;;4.80;;
12218;SDS011;6172;42.646;23.344;2022-09-09T07:13:53;7.43;;;4.95;;
12218;SDS011;6172;42.646;23.344;2022-09-09T07:16:22;6.78;;;5.50;;
12218;SDS011;6172;42.646;23.344;2022-09-09T07:18:52;5.30;;;4.80;;
12218;SDS011;6172;42.646;23.344;2022-09-09T07:21:23;10.20;;;5.18;;
12218;SDS011;6172;42.646;23.344;2022-09-09T07:23:57;9.93;;;5.22;;
12218;SDS011;6172;42.646;23.344;2022-09-09T07:26:25;9.98;;;5.63;;
12218;SDS011;6172;42.646;23.344;2022-09-09T07:28:53;7.72;;;5.57;;
12218;SDS011;6172;42.646;23.344;2022-09-09T07:37:17;7.80;;;5.43;;
12218;SDS011;6172;42.646;23.344;2022-09-09T07:39:49;5.72;;;5.13;;
12218;SDS011;6172;42.646;23.344;2022-09-09T07:42:19;5.53;;;4.57;;
12218;SDS011;6172;42.646;23.344;2022-09-09T07:44:46;13.35;;;7.88;;
12218;SDS011;6172;42.646;23.344;2022-09-09T07:47:16;9.30;;;6.55;;
12218;SDS011;6172;42.646;23.344;2022-09-09T07:49:48;9.63;;;6.15;;
12218;SDS011;6172;42.646;23.344;2022-09-09T07:57:31;6.47;;;5.13;;
12218;SDS011;6172;42.646;23.344;2022-09-09T07:59:59;7.63;;;5.38;;
12218;SDS011;6172;42.646;23.344;2022-09-09T08:02:43;9.38;;;5.45;;
12218;SDS011;6172;42.646;23.344;2022-09-09T08:05:15;8.20;;;5.38;;
12218;SDS011;6172;42.646;23.344;2022-09-09T08:07:43;5.25;;;4.78;;
12218;SDS011;6172;42.646;23.344;2022-09-09T08:10:15;5.55;;;5.05;;
12218;SDS011;6172;42.646;23.344;2022-09-09T08:12:43;11.27;;;4.85;;
12218;SDS011;6172;42.646;23.344;2022-09-09T08:15:12;6.90;;;5.00;;
12218;SDS011;6172;42.646;23.344;2022-09-09T08:17:43;7.20;;;5.07;;
12218;SDS011;6172;42.646;23.344;2022-09-09T08:20:13;7.00;;;4.90;;
12218;SDS011;6172;42.646;23.344;2022-09-09T08:22:42;9.18;;;4.78;;
12218;SDS011;6172;42.646;23.344;2022-09-09T08:25:10;8.10;;;5.07;;
12218;SDS011;6172;42.646;23.344;2022-09-09T08:27:38;6.43;;;4.60;;
12218;SDS011;6172;42.646;23.344;2022-09-09T08:30:08;7.82;;;4.78;;
12218;SDS011;6172;42.646;23.344;2022-09-09T08:32:42;6.88;;;5.32;;
12218;SDS011;6172;42.646;23.344;2022-09-09T08:35:10;6.80;;;5.05;;
12218;SDS011;6172;42.646;23.344;2022-09-09T08:37:40;4.90;;;4.55;;
12218;SDS011;6172;42.646;23.344;2022-09-09T08:40:08;5.97;;;5.20;;
12218;SDS011;6172;42.646;23.344;2022-09-09T08:42:49;7.00;;;5.03;;
12218;SDS011;6172;42.646;23.344;2022-09-09T08:45:50;5.20;;;4.40;;
12218;SDS011;6172;42.646;23.344;2022-09-09T08:48:33;6.63;;;5.10;;
12218;SDS011;6172;42.646;23.344;2022-09-09T08:51:19;8.00;;;5.30;;
12218;SDS011;6172;42.646;23.344;2022-09-09T08:53:47;5.25;;;4.53;;
12218;SDS011;6172;42.646;23.344;2022-09-09T08:56:18;7.18;;;4.82;;
12218;SDS011;6172;42.646;23.344;2022-09-09T08:58:49;8.15;;;4.90;;
12218;SDS011;6172;42.646;23.344;2022-09-09T09:01:25;5.93;;;4.47;;
12218;SDS011;6172;42.646;23.344;2022-09-09T09:04:05;5.68;;;4.95;;
12218;SDS011;6172;42.646;23.344;2022-09-09T09:06:45;5.93;;;4.40;;
12218;SDS011;6172;42.646;23.344;2022-09-09T09:09:27;7.07;;;5.13;;
12218;SDS011;6172;42.646;23.344;2022-09-09T09:12:10;6.93;;;4.65;;
12218;SDS011;6172;42.646;23.344;2022-09-09T09:14:41;7.00;;;4.38;;
12218;SDS011;6172;42.646;23.344;2022-09-09T09:17:12;7.50;;;4.80;;
12218;SDS011;6172;42.646;23.344;2022-09-09T09:19:43;7.53;;;4.60;;
12218;SDS011;6172;42.646;23.344;2022-09-09T09:22:14;7.20;;;4.20;;
12218;SDS011;6172;42.646;23.344;2022-09-09T09:24:50;9.07;;;4.75;;
12218;SDS011;6172;42.646;23.344;2022-09-09T09:27:25;7.00;;;4.72;;
12218;SDS011;6172;42.646;23.344;2022-09-09T09:30:00;4.78;;;4.35;;
12218;SDS011;6172;42.646;23.344;2022-09-09T09:32:38;4.97;;;4.57;;
12218;SDS011;6172;42.646;23.344;2022-09-09T09:35:11;5.30;;;4.80;;
12218;SDS011;6172;42.646;23.344;2022-09-09T09:37:50;11.02;;;4.80;;
12218;SDS011;6172;42.646;23.344;2022-09-09T09:40:18;5.55;;;4.32;;
12218;SDS011;6172;42.646;23.344;2022-09-09T09:42:48;6.97;;;4.65;;
12218;SDS011;6172;42.646;23.344;2022-09-09T09:45:34;5.82;;;4.30;;
12218;SDS011;6172;42.646;23.344;2022-09-09T09:48:10;5.20;;;4.70;;
12218;SDS011;6172;42.646;23.344;2022-09-09T09:50:48;7.35;;;4.90;;
12218;SDS011;6172;42.646;23.344;2022-09-09T09:53:20;6.65;;;4.55;;
12218;SDS011;6172;42.646;23.344;2022-09-09T09:55:54;5.60;;;4.07;;
12218;SDS011;6172;42.646;23.344;2022-09-09T09:58:25;6.55;;;4.68;;
12218;SDS011;6172;42.646;23.344;2022-09-09T10:00:58;5.40;;;4.90;;
12218;SDS011;6172;42.646;23.344;2022-09-09T10:03:35;10.05;;;5.07;;
12218;SDS011;6172;42.646;23.344;2022-09-09T10:06:08;7.88;;;4.22;;
12218;SDS011;6172;42.646;23.344;2022-09-09T10:08:44;6.90;;;4.70;;
12218;SDS011;6172;42.646;23.344;2022-09-09T10:11:17;5.82;;;4.50;;
12218;SDS011;6172;42.646;23.344;2022-09-09T10:13:59;7.03;;;4.90;;
12218;SDS011;6172;42.646;23.344;2022-09-09T10:16:35;11.63;;;5.55;;
12218;SDS011;6172;42.646;23.344;2022-09-09T10:19:13;9.27;;;4.97;;
12218;SDS011;6172;42.646;23.344;2022-09-09T10:22:01;7.85;;;5.00;;
12218;SDS011;6172;42.646;23.344;2022-09-09T10:24:54;5.78;;;4.88;;
12218;SDS011;6172;42.646;23.344;2022-09-09T10:27:47;11.10;;;4.80;;
12218;SDS011;6172;42.646;23.344;2022-09-09T10:30:24;12.05;;;6.32;;
12218;SDS011;6172;42.646;23.344;2022-09-09T10:33:03;8.60;;;5.75;;
12218;SDS011;6172;42.646;23.344;2022-09-09T10:35:38;9.73;;;5.32;;
12218;SDS011;6172;42.646;23.344;2022-09-09T10:38:12;6.13;;;5.38;;
12218;SDS011;6172;42.646;23.344;2022-09-09T10:40:58;5.45;;;4.95;;
12218;SDS011;6172;42.646;23.344;2022-09-09T10:43:40;6.47;;;4.88;;
12218;SDS011;6172;42.646;23.344;2022-09-09T10:46:33;7.75;;;5.88;;
12218;SDS011;6172;42.646;23.344;2022-09-09T10:49:15;5.65;;;5.07;;
12218;SDS011;6172;42.646;23.344;2022-09-09T10:51:56;11.65;;;5.60;;
12218;SDS011;6172;42.646;23.344;2022-09-09T10:54:40;9.32;;;6.25;;
12218;SDS011;6172;42.646;23.344;2022-09-09T10:57:16;10.35;;;6.05;;
12218;SDS011;6172;42.646;23.344;2022-09-09T10:59:54;10.15;;;5.97;;
12218;SDS011;6172;42.646;23.344;2022-09-09T11:02:26;5.78;;;5.07;;
12218;SDS011;6172;42.646;23.344;2022-09-09T11:04:55;7.95;;;6.10;;
12218;SDS011;6172;42.646;23.344;2022-09-09T11:07:29;9.00;;;5.80;;
12218;SDS011;6172;42.646;23.344;2022-09-09T11:10:11;8.55;;;5.20;;
12218;SDS011;6172;42.646;23.344;2022-09-09T11:12:49;6.50;;;5.13;;
12218;SDS011;6172;42.646;23.344;2022-09-09T11:15:21;8.23;;;5.72;;
12218;SDS011;6172;42.646;23.344;2022-09-09T11:17:58;7.80;;;5.03;;
12218;SDS011;6172;42.646;23.344;2022-09-09T11:20:28;5.97;;;5.10;;
12218;SDS011;6172;42.646;23.344;2022-09-09T11:22:58;8.20;;;5.57;;
12218;SDS011;6172;42.646;23.344;2022-09-09T11:25:31;7.68;;;5.30;;
12218;SDS011;6172;42.646;23.344;2022-09-09T11:28:06;9.43;;;6.35;;
12218;SDS011;6172;42.646;23.344;2022-09-09T11:30:49;6.95;;;6.18;;
12218;SDS011;6172;42.646;23.344;2022-09-09T11:39:50;7.60;;;5.97;;
12218;SDS011;6172;42.646;23.344;2022-09-09T11:42:32;9.23;;;6.30;;
12218;SDS011;6172;42.646;23.344;2022-09-09T11:45:08;7.40;;;6.28;;
12218;SDS011;6172;42.646;23.344;2022-09-09T11:47:39;6.97;;;6.30;;
12218;SDS011;6172;42.646;23.344;2022-09-09T11:50:10;12.82;;;6.93;;
12218;SDS011;6172;42.646;23.344;2022-09-09T11:53:02;9.82;;;6.95;;
12218;SDS011;6172;42.646;23.344;2022-09-09T11:55:33;8.07;;;6.60;;
12218;SDS011;6172;42.646;23.344;2022-09-09T11:58:04;9.95;;;7.20;;
12218;SDS011;6172;42.646;23.344;2022-09-09T12:00:34;11.23;;;7.13;;
12218;SDS011;6172;42.646;23.344;2022-09-09T12:03:03;11.13;;;6.95;;
12218;SDS011;6172;42.646;23.344;2022-09-09T12:05:37;6.82;;;6.13;;
12218;SDS011;6172;42.646;23.344;2022-09-09T12:08:08;10.30;;;6.82;;
12218;SDS011;6172;42.646;23.344;2022-09-09T12:10:38;10.10;;;7.40;;
12218;SDS011;6172;42.646;23.344;2022-09-09T12:13:18;10.27;;;7.00;;
12218;SDS011;6172;42.646;23.344;2022-09-09T12:15:48;7.30;;;6.60;;
12218;SDS011;6172;42.646;23.344;2022-09-09T12:18:16;7.13;;;5.50;;
12218;SDS011;6172;42.646;23.344;2022-09-09T12:20:52;11.00;;;6.22;;
12218;SDS011;6172;42.646;23.344;2022-09-09T12:23:36;12.63;;;6.82;;
12218;SDS011;6172;42.646;23.344;2022-09-09T12:26:17;9.05;;;7.15;;
12218;SDS011;6172;42.646;23.344;2022-09-09T12:28:57;10.75;;;7.03;;
12218;SDS011;6172;42.646;23.344;2022-09-09T12:31:33;10.45;;;6.95;;
12218;SDS011;6172;42.646;23.344;2022-09-09T12:34:13;8.50;;;7.25;;
12218;SDS011;6172;42.646;23.344;2022-09-09T12:36:44;14.25;;;8.25;;
12218;SDS011;6172;42.646;23.344;2022-09-09T12:39:16;12.63;;;7.30;;
12218;SDS011;6172;42.646;23.344;2022-09-09T12:41:51;10.23;;;7.10;;
12218;SDS011;6172;42.646;23.344;2022-09-09T12:44:24;13.43;;;7.57;;
12218;SDS011;6172;42.646;23.344;2022-09-09T12:46:54;8.43;;;6.60;;
12218;SDS011;6172;42.646;23.344;2022-09-09T12:49:26;10.05;;;7.55;;
12218;SDS011;6172;42.646;23.344;2022-09-09T12:52:00;11.32;;;7.03;;
12218;SDS011;6172;42.646;23.344;2022-09-09T12:54:30;8.48;;;6.43;;
12218;SDS011;6172;42.646;23.344;2022-09-09T12:56:59;9.80;;;5.97;;
12218;SDS011;6172;42.646;23.344;2022-09-09T12:59:36;8.55;;;6.72;;
12218;SDS011;6172;42.646;23.344;2022-09-09T13:02:11;10.95;;;6.82;;
12218;SDS011;6172;42.646;23.344;2022-09-09T13:04:44;7.40;;;6.32;;
12218;SDS011;6172;42.646;23.344;2022-09-09T13:07:12;10.27;;;6.85;;
12218;SDS011;6172;42.646;23.344;2022-09-09T13:09:42;10.07;;;6.60;;
12218;SDS011;6172;42.646;23.344;2022-09-09T13:12:13;9.93;;;6.60;;
12218;SDS011;6172;42.646;23.344;2022-09-09T13:14:45;8.32;;;6.88;;
12218;SDS011;6172;42.646;23.344;2022-09-09T13:17:17;14.82;;;7.07;;
12218;SDS011;6172;42.646;23.344;2022-09-09T13:19:47;9.50;;;6.60;;
12218;SDS011;6172;42.646;23.344;2022-09-09T13:22:20;9.23;;;6.93;;
12218;SDS011;6172;42.646;23.344;2022-09-09T13:25:04;9.48;;;6.93;;
12218;SDS011;6172;42.646;23.344;2022-09-09T13:27:33;13.30;;;7.15;;
12218;SDS011;6172;42.646;23.344;2022-09-09T13:32:59;9.02;;;7.03;;
12218;SDS011;6172;42.646;23.344;2022-09-09T13:35:27;10.30;;;6.85;;
12218;SDS011;6172;42.646;23.344;2022-09-09T13:37:55;12.30;;;7.70;;
12218;SDS011;6172;42.646;23.344;2022-09-09T13:40:23;11.98;;;6.72;;
12218;SDS011;6172;42.646;23.344;2022-09-09T13:42:54;10.15;;;6.97;;
12218;SDS011;6172;42.646;23.344;2022-09-09T13:48:01;13.35;;;7.57;;
12218;SDS011;6172;42.646;23.344;2022-09-09T13:53:12;11.18;;;7.32;;
12218;SDS011;6172;42.646;23.344;2022-09-09T13:55:40;8.45;;;6.85;;
12218;SDS011;6172;42.646;23.344;2022-09-09T13:58:15;10.90;;;6.50;;
12218;SDS011;6172;42.646;23.344;2022-09-09T14:00:44;12.45;;;7.00;;
12218;SDS011;6172;42.646;23.344;2022-09-09T14:05:55;14.32;;;7.40;;
12218;SDS011;6172;42.646;23.344;2022-09-09T14:08:24;11.25;;;7.13;;
12218;SDS011;6172;42.646;23.344;2022-09-09T14:10:58;9.70;;;7.30;;
12218;SDS011;6172;42.646;23.344;2022-09-09T14:13:25;11.98;;;7.28;;
12218;SDS011;6172;42.646;23.344;2022-09-09T14:15:53;9.90;;;8.07;;
12218;SDS011;6172;42.646;23.344;2022-09-09T14:18:25;11.60;;;7.07;;
12218;SDS011;6172;42.646;23.344;2022-09-09T14:20:53;10.40;;;7.20;;
12218;SDS011;6172;42.646;23.344;2022-09-09T14:23:23;18.15;;;7.38;;
12218;SDS011;6172;42.646;23.344;2022-09-09T14:25:57;9.30;;;6.72;;
12218;SDS011;6172;42.646;23.344;2022-09-09T14:28:24;10.48;;;6.65;;
12218;SDS011;6172;42.646;23.344;2022-09-09T14:30:53;10.63;;;6.72;;
12218;SDS011;6172;42.646;23.344;2022-09-09T14:33:24;10.85;;;6.70;;
12218;SDS011;6172;42.646;23.344;2022-09-09T14:35:56;10.77;;;7.00;;
12218;SDS011;6172;42.646;23.344;2022-09-09T14:38:24;12.43;;;6.78;;
12218;SDS011;6172;42.646;23.344;2022-09-09T14:40:51;11.63;;;6.53;;
12218;SDS011;6172;42.646;23.344;2022-09-09T14:43:19;8.25;;;6.53;;
12218;SDS011;6172;42.646;23.344;2022-09-09T14:45:46;8.85;;;6.10;;
12218;SDS011;6172;42.646;23.344;2022-09-09T14:48:18;12.85;;;6.68;;
12218;SDS011;6172;42.646;23.344;2022-09-09T14:51:09;9.05;;;6.13;;
12218;SDS011;6172;42.646;23.344;2022-09-09T14:53:38;10.98;;;6.57;;
12218;SDS011;6172;42.646;23.344;2022-09-09T14:56:06;8.48;;;6.45;;
12218;SDS011;6172;42.646;23.344;2022-09-09T14:58:34;8.32;;;6.35;;
12218;SDS011;6172;42.646;23.344;2022-09-09T15:01:02;12.75;;;6.32;;
12218;SDS011;6172;42.646;23.344;2022-09-09T15:03:31;11.07;;;6.43;;
12218;SDS011;6172;42.646;23.344;2022-09-09T15:06:16;12.35;;;6.70;;
12218;SDS011;6172;42.646;23.344;2022-09-09T15:08:47;11.02;;;6.60;;
12218;SDS011;6172;42.646;23.344;2022-09-09T15:11:22;11.20;;;6.75;;
12218;SDS011;6172;42.646;23.344;2022-09-09T15:13:51;11.95;;;6.95;;
12218;SDS011;6172;42.646;23.344;2022-09-09T15:16:20;12.45;;;7.75;;
12218;SDS011;6172;42.646;23.344;2022-09-09T15:18:50;11.55;;;7.25;;
12218;SDS011;6172;42.646;23.344;2022-09-09T15:21:23;12.18;;;7.03;;
12218;SDS011;6172;42.646;23.344;2022-09-09T15:23:52;10.65;;;6.38;;
12218;SDS011;6172;42.646;23.344;2022-09-09T15:26:19;10.73;;;6.30;;
12218;SDS011;6172;42.646;23.344;2022-09-09T15:28:53;12.80;;;6.75;;
12218;SDS011;6172;42.646;23.344;2022-09-09T15:31:21;15.30;;;7.15;;
12218;SDS011;6172;42.646;23.344;2022-09-09T15:33:52;10.18;;;7.20;;
12218;SDS011;6172;42.646;23.344;2022-09-09T15:36:27;12.23;;;7.60;;
12218;SDS011;6172;42.646;23.344;2022-09-09T15:38:57;9.55;;;7.47;;